createdAt,value
2024-05-09T00:03:41.754Z,13.46
2024-05-09T00:08:44.249Z,13.35
2024-05-09T00:13:47.307Z,13.33
2024-05-09T00:18:49.334Z,13.24
2024-05-09T00:23:51.305Z,13.12
2024-05-09T00:28:53.326Z,13.05
2024-05-09T00:33:55.390Z,12.97
2024-05-09T00:38:57.480Z,12.97
2024-05-09T00:43:59.889Z,12.88
2024-05-09T00:49:02.081Z,12.69
2024-05-09T00:54:05.484Z,12.63
2024-05-09T00:59:08.602Z,12.64
2024-05-09T01:04:11.453Z,12.59
2024-05-09T01:09:13.567Z,12.61
2024-05-09T01:14:15.478Z,12.69
2024-05-09T01:19:26.963Z,12.78
2024-05-09T01:24:29.583Z,12.86
2024-05-09T01:29:31.827Z,12.86
2024-05-09T01:34:33.756Z,12.85
2024-05-09T01:39:36.329Z,12.81
2024-05-09T01:44:38.404Z,12.75
2024-05-09T01:49:40.860Z,12.69
2024-05-09T01:54:43.063Z,12.65
2024-05-09T01:59:45.142Z,12.68
2024-05-09T02:04:47.932Z,12.71
2024-05-09T02:09:53.436Z,12.75
2024-05-09T02:14:55.697Z,12.73
2024-05-09T02:19:58.084Z,12.74
2024-05-09T02:25:00.791Z,12.70
2024-05-09T02:30:04.720Z,12.65
2024-05-09T02:35:08.115Z,12.53
2024-05-09T02:40:14.613Z,12.44
2024-05-09T02:45:20.041Z,12.46
2024-05-09T02:50:29.895Z,12.49
2024-05-09T02:55:40.043Z,12.53
2024-05-09T03:00:43.129Z,12.48
2024-05-09T03:05:45.852Z,12.38
2024-05-09T03:10:48.377Z,12.30
2024-05-09T03:15:50.517Z,12.30
2024-05-09T03:20:53.042Z,12.28
2024-05-09T03:25:55.076Z,12.27
2024-05-09T03:30:57.018Z,12.28
2024-05-09T03:35:59.151Z,12.26
2024-05-09T03:41:01.294Z,12.18
2024-05-09T03:46:03.604Z,12.28
2024-05-09T03:51:06.854Z,12.33
2024-05-09T03:56:08.937Z,12.39
2024-05-09T04:01:10.987Z,12.42
2024-05-09T04:06:21.366Z,12.43
2024-05-09T04:11:23.369Z,12.36
2024-05-09T04:16:25.702Z,12.31
2024-05-09T04:21:27.640Z,12.23
2024-05-09T04:26:29.610Z,12.21
2024-05-09T04:31:36.112Z,12.22
2024-05-09T04:36:39.665Z,12.22
2024-05-09T04:41:43.950Z,12.22
2024-05-09T04:46:47.638Z,12.26
2024-05-09T04:51:49.613Z,12.31
2024-05-09T04:56:51.685Z,12.38
2024-05-09T05:01:53.818Z,12.44
2024-05-09T05:06:57.747Z,12.51
2024-05-09T05:12:02.908Z,12.67
2024-05-09T05:17:05.239Z,12.81
2024-05-09T05:22:07.320Z,12.95
2024-05-09T05:27:09.847Z,13.02
2024-05-09T05:32:12.070Z,13.15
2024-05-09T05:37:14.241Z,13.11
2024-05-09T05:42:36.363Z,13.19
2024-05-09T05:47:38.934Z,13.25
2024-05-09T05:52:40.959Z,13.31
2024-05-09T05:57:43.750Z,13.41
2024-05-09T06:02:45.874Z,13.49
2024-05-09T06:07:47.998Z,13.57
2024-05-09T06:12:50.409Z,13.66
2024-05-09T06:17:52.665Z,13.71
2024-05-09T06:22:54.691Z,13.72
2024-05-09T06:27:57.002Z,13.79
2024-05-09T06:32:59.135Z,13.87
2024-05-09T06:38:01.570Z,13.98
2024-05-09T06:43:03.976Z,14.05
2024-05-09T06:48:07.197Z,14.18
2024-05-09T06:53:09.894Z,14.27
2024-05-09T06:58:12.167Z,14.33
2024-05-09T07:03:18.562Z,14.40
2024-05-09T07:08:21.566Z,14.54
2024-05-09T07:13:24.051Z,14.64
2024-05-09T07:18:26.724Z,14.81
2024-05-09T07:23:28.819Z,14.87
2024-05-09T07:28:30.946Z,14.94
2024-05-09T07:33:33.148Z,15.06
2024-05-09T07:38:35.568Z,15.16
2024-05-09T07:43:37.912Z,15.25
2024-05-09T07:53:50.616Z,15.44
2024-05-09T07:58:55.768Z,15.50
2024-05-09T08:03:57.891Z,15.60
2024-05-09T08:09:07.689Z,15.65
2024-05-09T08:14:12.908Z,15.84
2024-05-09T08:19:15.198Z,16.00
2024-05-09T08:24:17.495Z,16.20
2024-05-09T08:29:19.819Z,16.42
2024-05-09T08:34:22.019Z,16.63
2024-05-09T08:39:24.621Z,16.77
2024-05-09T08:44:26.748Z,17.06
2024-05-09T08:49:30.274Z,17.26
2024-05-09T08:54:32.907Z,17.57
2024-05-09T08:59:40.719Z,17.73
2024-05-09T09:04:51.093Z,17.88
2024-05-09T09:09:54.827Z,17.90
2024-05-09T09:15:00.334Z,17.69
2024-05-09T09:20:11.304Z,17.85
2024-05-09T09:25:16.746Z,17.99
2024-05-09T09:30:33.998Z,17.83
2024-05-09T09:35:54.263Z,17.82
2024-05-09T09:40:56.757Z,17.72
2024-05-09T09:46:01.092Z,17.49
2024-05-09T09:51:03.691Z,17.40
2024-05-09T09:56:08.819Z,17.60
2024-05-09T10:01:11.418Z,17.87
2024-05-09T10:06:14.310Z,17.62
2024-05-09T10:11:22.272Z,17.79
2024-05-09T10:16:24.875Z,18.02
2024-05-09T10:21:27.735Z,18.12
2024-05-09T10:26:37.479Z,17.69
2024-05-09T10:31:44.200Z,17.93
2024-05-09T10:36:46.498Z,18.22
2024-05-09T10:41:49.718Z,18.36
2024-05-09T10:46:54.747Z,18.11
2024-05-09T10:51:57.321Z,18.07
2024-05-09T10:56:59.265Z,18.37
2024-05-09T11:02:04.474Z,18.40
2024-05-09T11:07:12.796Z,18.50
2024-05-09T11:12:15.794Z,18.77
2024-05-09T11:17:26.758Z,18.73
2024-05-09T11:22:35.532Z,18.64
2024-05-09T11:27:37.618Z,18.94
2024-05-09T11:32:40.323Z,18.79
2024-05-09T11:37:43.043Z,18.89
2024-05-09T11:42:49.957Z,18.55
2024-05-09T11:47:54.309Z,18.63
2024-05-09T11:52:56.636Z,19.20
2024-05-09T11:57:58.798Z,19.59
2024-05-09T12:03:01.104Z,19.53
2024-05-09T12:08:03.596Z,19.08
2024-05-09T12:13:06.951Z,19.17
2024-05-09T12:18:09.841Z,19.40
2024-05-09T12:23:12.103Z,19.12
2024-05-09T12:28:16.041Z,19.04
2024-05-09T12:33:20.713Z,18.99
2024-05-09T12:38:23.040Z,18.97
2024-05-09T12:43:25.442Z,19.25
2024-05-09T12:48:28.053Z,19.95
2024-05-09T12:53:30.485Z,20.22
2024-05-09T12:58:33.336Z,20.39
2024-05-09T13:03:35.437Z,19.95
2024-05-09T13:08:37.667Z,19.67
2024-05-09T13:13:39.780Z,19.47
2024-05-09T13:18:42.220Z,19.87
2024-05-09T13:23:45.076Z,20.54
2024-05-09T13:28:47.036Z,20.98
2024-05-09T13:33:49.099Z,20.59
2024-05-09T13:38:51.108Z,20.11
2024-05-09T13:43:53.720Z,19.87
2024-05-09T13:48:55.724Z,19.59
2024-05-09T13:53:59.345Z,19.59
2024-05-09T13:59:02.227Z,19.79
2024-05-09T14:04:04.521Z,19.99
2024-05-09T14:09:09.720Z,19.74
2024-05-09T14:14:11.775Z,19.55
2024-05-09T14:19:15.095Z,19.44
2024-05-09T14:24:17.308Z,19.43
2024-05-09T14:29:19.394Z,19.87
2024-05-09T14:34:21.457Z,20.64
2024-05-09T14:39:23.503Z,20.87
2024-05-09T14:44:25.436Z,20.65
2024-05-09T14:49:27.518Z,20.36
2024-05-09T14:54:29.737Z,19.97
2024-05-09T14:59:31.799Z,19.96
2024-05-09T15:04:33.839Z,20.24
2024-05-09T15:09:36.391Z,20.76
2024-05-09T15:14:38.779Z,20.69
2024-05-09T15:19:41.590Z,20.65
2024-05-09T15:24:45.155Z,21.02
2024-05-09T15:29:47.144Z,21.24
2024-05-09T15:34:49.438Z,21.56
2024-05-09T15:39:51.692Z,21.51
2024-05-09T15:44:54.802Z,21.24
2024-05-09T15:49:56.978Z,21.05
2024-05-09T15:54:59.199Z,20.64
2024-05-09T16:00:01.173Z,20.29
2024-05-09T16:05:03.554Z,19.91
2024-05-09T16:10:07.137Z,19.65
2024-05-09T16:15:09.475Z,19.66
2024-05-09T16:20:15.167Z,20.13
2024-05-09T16:25:20.915Z,20.44
2024-05-09T16:30:31.423Z,20.89
2024-05-09T16:35:40.164Z,21.04
2024-05-09T16:40:43.227Z,21.33
2024-05-09T16:45:45.334Z,21.41
2024-05-09T16:50:47.924Z,21.38
2024-05-09T16:55:49.980Z,21.11
2024-05-09T17:00:52.534Z,21.03
2024-05-09T17:05:54.768Z,21.03
2024-05-09T17:10:57.213Z,20.87
2024-05-09T17:15:59.584Z,20.71
2024-05-09T17:21:01.645Z,20.54
2024-05-09T17:26:04.182Z,20.51
2024-05-09T17:31:07.363Z,20.48
2024-05-09T17:36:09.503Z,20.57
2024-05-09T17:41:11.850Z,20.68
2024-05-09T17:46:13.814Z,20.36
2024-05-09T17:51:16.078Z,19.96
2024-05-09T17:56:18.689Z,19.52
2024-05-09T18:01:20.867Z,19.24
2024-05-09T18:06:22.873Z,18.87
2024-05-09T18:11:25.655Z,18.67
2024-05-09T18:16:30.935Z,18.16
2024-05-09T18:21:33.037Z,17.79
2024-05-09T18:26:35.103Z,17.33
2024-05-09T18:31:37.232Z,16.71
2024-05-09T18:36:42.390Z,16.19
2024-05-09T18:41:45.366Z,15.89
2024-05-09T18:46:47.216Z,15.62
2024-05-09T18:51:49.225Z,15.33
2024-05-09T18:56:51.303Z,15.13
2024-05-09T19:01:53.358Z,14.88
2024-05-09T19:06:56.036Z,14.70
2024-05-09T19:12:03.218Z,14.50
2024-05-09T19:17:06.104Z,14.25
2024-05-09T19:22:08.715Z,14.06
2024-05-09T19:27:11.307Z,14.06
2024-05-09T19:32:13.708Z,13.81
2024-05-09T19:37:15.982Z,13.67
2024-05-09T19:42:18.301Z,13.50
2024-05-09T19:47:20.957Z,13.31
2024-05-09T19:52:27.418Z,13.07
2024-05-09T19:57:30.424Z,13.02
2024-05-09T20:02:33.111Z,12.96
2024-05-09T20:07:37.623Z,12.78
2024-05-09T20:12:40.174Z,12.80
2024-05-09T20:17:43.836Z,12.80
2024-05-09T20:22:47.370Z,12.72
2024-05-09T20:27:49.536Z,12.58
2024-05-09T20:32:53.930Z,12.63
2024-05-09T20:37:56.566Z,12.55
2024-05-09T20:42:59.548Z,12.38
2024-05-09T20:48:03.435Z,12.30
2024-05-09T20:53:05.729Z,12.24
2024-05-09T20:58:08.576Z,12.12
2024-05-09T21:03:13.444Z,12.12
2024-05-09T21:08:16.480Z,12.05
2024-05-09T21:13:18.714Z,12.18
2024-05-09T21:18:21.381Z,11.92
2024-05-09T21:23:23.348Z,11.68
2024-05-09T21:28:25.467Z,11.57
2024-05-09T21:33:29.440Z,11.55
2024-05-09T21:38:32.665Z,11.45
2024-05-09T21:43:34.671Z,11.33
2024-05-09T21:48:37.265Z,11.20
2024-05-09T21:53:40.197Z,11.28
2024-05-09T21:58:42.449Z,11.29
2024-05-09T22:03:44.660Z,11.25
2024-05-09T22:08:47.157Z,11.20
2024-05-09T22:13:49.283Z,11.25
2024-05-09T22:18:51.373Z,11.32
2024-05-09T22:23:53.363Z,11.24
2024-05-09T22:28:55.221Z,11.29
2024-05-09T22:33:57.493Z,11.28
2024-05-09T22:38:59.839Z,11.18
2024-05-09T22:44:02.499Z,11.18
2024-05-09T22:49:04.746Z,11.07
2024-05-09T22:54:07.711Z,11.08
2024-05-09T22:59:09.852Z,11.09
2024-05-09T23:04:11.946Z,11.06
2024-05-09T23:09:14.290Z,11.14
2024-05-09T23:14:16.708Z,11.14
2024-05-09T23:19:19.091Z,11.12
2024-05-09T23:24:21.223Z,11.10
2024-05-09T23:29:23.122Z,11.08
2024-05-09T23:34:25.216Z,10.90
2024-05-09T23:39:27.339Z,10.50
2024-05-09T23:44:29.249Z,10.56
2024-05-09T23:49:31.341Z,10.62
2024-05-09T23:54:33.467Z,10.52
2024-05-09T23:59:35.646Z,10.52
